Terminal Aerodrome Forecast
Issued by NWS Cleveland, OH

Home | Current Version | Previous Version | Text Only | Print | Product List | Glossary Off
Versions: 1 2 3 4 5 6 7 8 9 10 11 12 13 14 15 16 17 18

928
FTUS41 KCLE 180540
TAFMFD
TAF
KMFD 180540Z 1806/1906 25010KT P6SM OVC006
     FM181000 26010KT 4SM -RA BR OVC003
     FM181400 27010KT 6SM BR OVC007
     FM181800 24008KT P6SM OVC007
     FM190100 21007KT P6SM OVC007=

USA.gov is the U.S. government's official web portal to all federal, state and local government web resources and services.